DW9955 Weather Reports


time (UTC)temp
F
wind
direction
speed
knots
gust
knots
rain 1hr
in
rain 24hr
in
rain mn
in
humidity
%
barometer
mb
20190424154613 58 359 7.0 13.0 0.00 0.00 0.00 53 1007.0
20190424153145 57 324 9.6 13.9 0.00 0.00 0.00 54 1007.2
20190424151542 57 354 8.7 14.8 0.00 0.00 0.00 54 1007.3
20190424150102 57 337 8.7 13.0 0.00 0.00 0.00 56 1007.4
20190424144708 56 346 7.0 10.4 0.00 0.00 0.00 61 1007.4
20190424144543 55 359 6.1 10.4 0.00 0.00 0.00 62 1007.4
20190424143038 52 267 0.0 1.7 0.00 0.00 0.00 74 1007.5
20190424141544 50 172 0.0 0.0 0.00 0.00 0.00 79 1007.7
20190424140053 50 172 0.0 4.3 0.00 0.00 0.00 80 1007.8
20190424134558 47 231 0.0 0.0 0.00 0.00 0.00 82 1007.8
20190424133036 47 201 0.0 0.0 0.00 0.00 0.00 82 1007.7
20190424131529 46 195 0.0 0.0 0.00 0.00 0.00 80 1007.5
20190424130016 46 243 0.0 2.6 0.00 0.00 0.00 79 1007.5
20190424124511 46 300 0.0 0.0 0.00 0.00 0.00 75 1007.5
20190424123021 47 354 0.0 0.0 0.00 0.00 0.00 74 1007.3
20190424121502 48 21 0.0 0.0 0.00 0.00 0.00 71 1007.3
20190424120217 49 343 0.0 0.0 0.00 0.00 0.00 71 1007.3
20190424114742 50 349 0.9 4.3 0.00 0.00 0.00 69 1007.1
20190424113217 51 334 4.3 7.8 0.00 0.00 0.00 67 1007.0
20190424111734 52 331 5.2 9.6 0.00 0.00 0.00 66 1007.0
20190424110203 52 322 5.2 9.6 0.00 0.00 0.00 66 1007.0
20190424104639 52 312 3.5 8.7 0.00 0.00 0.00 66 1007.1
20190424103151 52 319 0.9 7.8 0.00 0.00 0.00 66 1007.1
20190424101836 52 316 0.9 7.8 0.00 0.00 0.00 67 1006.9
20190424100202 52 323 5.2 8.7 0.00 0.00 0.00 65 1007.0
20190424094655 52 332 4.3 8.7 0.00 0.00 0.00 65 1006.9
20190424093345 50 322 2.6 5.2 0.00 0.00 0.00 67 1006.9
20190424091716 49 127 0.0 0.9 0.00 0.00 0.00 70 1006.9
20190424090206 49 135 0.0 0.0 0.00 0.00 0.00 69 1006.8
20190424084634 50 132 0.0 1.7 0.00 0.00 0.00 69 1006.7
20190424083111 50 208 0.0 0.9 0.00 0.00 0.00 70 1006.7
20190424081626 51 208 0.0 0.0 0.00 0.00 0.00 71 1006.9
20190424080125 51 207 0.0 0.9 0.00 0.00 0.00 69 1007.0
20190424074601 51 191 0.0 3.5 0.00 0.00 0.00 69 1007.0
20190424073109 50 179 1.7 5.2 0.00 0.00 0.00 71 1007.0
20190424071559 49 223 1.7 5.2 0.00 0.00 0.00 74 1007.1
20190424070051 49 201 0.0 3.5 0.00 0.00 0.00 74 1007.1
20190424064647 48 161 0.0 2.6 0.00 0.00 0.00 76 1007.2
20190424063112 48 152 0.0 2.6 0.00 0.00 0.00 76 1007.0
20190424061608 48 208 0.0 2.6 0.00 0.00 0.00 76 1007.1
20190424060136 50 230 3.5 8.7 0.00 0.00 0.00 73 1006.9
20190424054559 50 198 2.6 5.2 0.00 0.00 0.00 72 1006.9
20190424053059 51 211 0.0 5.2 0.00 0.00 0.00 70 1006.9
20190424051558 51 209 1.7 4.3 0.00 0.00 0.00 71 1006.9
20190424050056 51 187 2.6 7.0 0.00 0.00 0.00 71 1007.0
20190424044558 51 199 2.6 6.1 0.00 0.00 0.00 74 1007.0
20190424043124 50 156 1.7 4.3 0.00 0.00 0.00 74 1007.1
20190424041610 50 199 0.0 2.6 0.00 0.00 0.00 75 1007.1
20190424040144 50 298 0.0 2.6 0.00 0.00 0.00 75 1007.1
20190424034612 52 299 0.0 0.9 0.00 0.00 0.00 71 1007.0
20190424033053 54 299 0.0 0.0 0.00 0.00 0.00 70 1006.9
20190424031611 55 299 0.0 0.0 0.00 0.00 0.00 68 1006.9
20190424030132 56 299 0.0 0.0 0.00 0.00 0.00 66 1006.8
20190424024548 58 354 0.0 0.0 0.00 0.00 0.00 61 1006.7
20190424023050 59 354 0.0 0.0 0.00 0.00 0.00 63 1006.6
20190424021617 60 147 0.0 0.0 0.00 0.00 0.00 56 1006.5
20190424020048 61 147 0.0 0.0 0.00 0.00 0.00 57 1006.5
20190424014617 62 147 0.0 0.0 0.00 0.00 0.00 52 1006.4
20190424013111 62 124 0.0 0.9 0.00 0.00 0.00 56 1006.7
20190424011616 63 12 0.0 0.0 0.00 0.00 0.00 53 1006.7
20190424010038 64 12 0.0 0.0 0.00 0.00 0.00 48 1006.9
20190424004542 64 354 0.0 0.0 0.00 0.00 0.00 48 1007.0
20190424003031 65 354 0.0 2.6 0.00 0.00 0.00 47 1007.1
20190424001554 65 345 0.9 2.6 0.00 0.00 0.00 46 1007.3
20190424000040 65 343 0.0 2.6 0.00 0.00 0.00 46 1007.4
20190423234527 65 341 0.9 3.5 0.00 0.00 0.00 44 1007.5
20190423233017 66 322 0.9 7.8 0.00 0.00 0.00 41 1007.6
20190423231519 66 332 3.5 8.7 0.00 0.00 0.00 41 1007.7
20190423230021 67 359 3.5 5.2 0.00 0.00 0.00 40 1007.7
20190423224524 67 347 0.9 7.0 0.00 0.00 0.00 36 1007.8
20190423223023 67 307 1.7 5.2 0.00 0.00 0.00 38 1007.8
20190423221517 67 326 3.5 7.0 0.00 0.00 0.00 38 1007.9
20190423220034 66 340 3.5 7.8 0.00 0.00 0.00 38 1008.2
20190423214517 68 310 0.9 3.5 0.00 0.00 0.00 35 1008.3
20190423213016 68 131 0.9 2.6 0.00 0.00 0.00 34 1008.5
20190423211510 67 247 0.9 7.8 0.00 0.00 0.00 36 1008.6
20190423210003 68 318 4.3 12.2 0.00 0.00 0.00 37 1009.0
20190423204705 68 316 0.0 5.2 0.00 0.00 0.00 37 1009.1
20190423203133 67 54 2.6 8.7 0.00 0.00 0.00 37 1009.3
20190423201710 67 359 3.5 12.2 0.00 0.00 0.00 37 1009.4
20190423200341 67 291 3.5 9.6 0.00 0.00 0.00 38 1009.6
20190423194619 67 319 3.5 11.3 0.00 0.00 0.00 41 1009.8
20190423193218 67 314 5.2 15.6 0.00 0.00 0.00 37 1009.9
20190423191739 67 349 10.4 14.8 0.00 0.00 0.00 35 1010.2
20190423190126 67 322 10.4 14.8 0.00 0.00 0.00 36 1010.5
20190423184646 66 354 7.0 12.2 0.00 0.00 0.00 35 1010.5
20190423183146 66 25 7.0 15.6 0.00 0.00 0.00 36 1010.8
20190423181628 67 35 6.1 14.8 0.00 0.00 0.00 35 1011.0
20190423180119 66 314 3.5 9.6 0.00 0.00 0.00 36 1011.3
20190423174613 66 27 3.5 10.4 0.00 0.00 0.00 37 1011.6
20190423173046 65 29 4.3 9.6 0.00 0.00 0.00 36 1011.9
20190423171627 65 35 6.1 9.6 0.00 0.00 0.00 37 1012.1
20190423170029 65 340 0.9 9.6 0.00 0.00 0.00 35 1012.3
20190423164526 65 46 0.0 3.5 0.00 0.00 0.00 37 1012.6
20190423163025 65 82 2.6 6.1 0.00 0.00 0.00 41 1012.5
20190423161519 63 141 3.5 7.0 0.00 0.00 0.00 47 1012.5
20190423160036 62 161 3.5 7.0 0.00 0.00 0.00 50 1012.6